首页
METAR-TAF:

METAR-TAF

机场 :

麦卡伦国际机场

拉斯维加斯, 内华达州, 美国

纬度: 36-04-44N, 经度: 115-09-19W, 海拔: 663米

当前天气观测

该预报发布于13分钟前的22:56 UTC
风速11节,风向西南,有时为18节阵风
温度 43°C
湿度 5%
气压 1004 hPa
能見度: 16.1公里
天空无云

METAR: KLAS 232256Z 22011G18KT 10SM CLR 43/M05 A2966 RMK AO2 SLP008 T04281056

时间: 16:09 (23:09 UTC)

预报

该预报发布于2小时和23分钟前的20:46 UTC
预报有效从23日的 21点(UTC)到 24日的 24点(UTC)
风速10节,风向,有时为20节阵风
能見度: 10公里
天空无云
从 24日的 1000点(UTC)
风速8节,风向南转西南
能見度: 10公里
天空无云
从 24日的 1400点(UTC)
风速7节,风向北转东北
能見度: 10公里
天空无云
从 24日的 2100点(UTC)
风速9节,风向
能見度: 10公里
天空无云

TAF: KLAS 232046Z 2321/2424 19010G20KT P6SM SKC FM241000 21008KT P6SM SKC FM241400 03007KT P6SM SKC FM242100 17009KT P6SM SKC

超过4000个机场的气象观测和天气预报(METAR&TAF报告)。

可查询的气象台以黄色和红色小点在地图上表示。

将鼠标移到小点上方,可查看气象台名称。

然后点击查看天气观测和预报。

如需切换地图:点击带黑十字的绿色按钮放大地图;点击带横线的绿色按钮缩小地图;或者点击绿色箭头查看邻近地区的地图。


METAR-TAF: